createdAt,value
2018-06-09T00:00:22.203Z,9.00
2018-06-09T00:02:50.812Z,9.80
2018-06-09T00:05:19.367Z,8.67
2018-06-09T00:07:47.979Z,9.73
2018-06-09T00:10:16.575Z,8.50
2018-06-09T00:12:45.239Z,9.30
2018-06-09T00:15:13.798Z,9.50
2018-06-09T00:17:42.391Z,9.63
2018-06-09T00:20:10.967Z,9.07
2018-06-09T00:22:39.222Z,10.20
2018-06-09T00:25:07.786Z,10.60
2018-06-09T00:27:36.370Z,9.70
2018-06-09T00:30:05.051Z,9.67
2018-06-09T00:32:33.634Z,10.33
2018-06-09T00:35:02.191Z,9.80
2018-06-09T00:37:30.796Z,10.27
2018-06-09T00:39:59.385Z,11.17
2018-06-09T00:42:27.994Z,10.73
2018-06-09T00:44:56.595Z,10.77
2018-06-09T00:47:25.191Z,12.60
2018-06-09T00:49:53.758Z,11.30
2018-06-09T00:52:22.352Z,11.20
2018-06-09T00:54:50.582Z,10.87
2018-06-09T00:57:19.185Z,11.33
2018-06-09T00:59:47.760Z,10.60
2018-06-09T01:02:16.366Z,11.20
2018-06-09T01:04:45.003Z,11.20
2018-06-09T01:07:13.571Z,10.47
2018-06-09T01:09:42.150Z,11.07
2018-06-09T01:12:10.774Z,10.37
2018-06-09T01:14:39.365Z,11.03
2018-06-09T01:17:07.976Z,11.87
2018-06-09T01:19:36.254Z,10.80
2018-06-09T01:22:04.937Z,12.27
2018-06-09T01:24:33.517Z,11.60
2018-06-09T01:27:02.092Z,10.70
2018-06-09T01:29:30.352Z,10.77
2018-06-09T01:31:58.911Z,11.03
2018-06-09T01:34:27.506Z,11.10
2018-06-09T01:36:56.061Z,10.80
2018-06-09T01:39:24.673Z,10.70
2018-06-09T01:41:53.244Z,10.57
2018-06-09T01:44:21.894Z,11.17
2018-06-09T01:46:50.459Z,11.33
2018-06-09T01:49:19.058Z,11.40
2018-06-09T01:51:47.613Z,11.17
2018-06-09T01:54:16.233Z,11.83
2018-06-09T01:56:44.802Z,12.70
2018-06-09T01:59:13.378Z,11.83
2018-06-09T02:01:41.930Z,11.90
2018-06-09T02:04:10.542Z,11.70
2018-06-09T02:06:39.123Z,11.67
2018-06-09T02:09:09.226Z,12.13
2018-06-09T02:11:37.823Z,12.30
2018-06-09T02:14:06.158Z,11.50
2018-06-09T02:16:34.724Z,11.47
2018-06-09T02:19:03.319Z,12.77
2018-06-09T02:21:31.932Z,12.80
2018-06-09T02:24:00.533Z,12.80
2018-06-09T02:26:29.099Z,12.80
2018-06-09T02:28:57.710Z,11.80
2018-06-09T02:31:26.299Z,12.13
2018-06-09T02:33:54.895Z,12.80
2018-06-09T02:36:23.443Z,11.60
2018-06-09T02:38:52.025Z,12.23
2018-06-09T02:41:20.575Z,12.30
2018-06-09T02:43:49.162Z,11.60
2018-06-09T02:46:17.736Z,12.80
2018-06-09T02:48:46.378Z,12.80
2018-06-09T02:51:14.933Z,13.30
2018-06-09T02:53:43.491Z,12.57
2018-06-09T02:56:12.094Z,11.33
2018-06-09T02:58:40.653Z,12.27
2018-06-09T03:01:09.325Z,14.23
2018-06-09T03:03:37.890Z,12.57
2018-06-09T03:06:06.512Z,10.80
2018-06-09T03:08:35.063Z,11.03
2018-06-09T03:11:03.657Z,10.97
2018-06-09T03:13:32.245Z,11.10
2018-06-09T03:16:00.886Z,11.87
2018-06-09T03:18:29.443Z,10.70
2018-06-09T03:20:58.043Z,11.60
2018-06-09T03:23:26.604Z,13.20
2018-06-09T03:25:55.188Z,12.37
2018-06-09T03:28:23.772Z,11.50
2018-06-09T03:30:52.370Z,11.60
2018-06-09T03:33:20.947Z,12.30
2018-06-09T03:35:49.539Z,12.40
2018-06-09T03:38:18.091Z,11.83
2018-06-09T03:40:46.693Z,11.67
2018-06-09T03:43:15.334Z,11.10
2018-06-09T03:45:43.919Z,11.10
2018-06-09T03:48:12.503Z,12.60
2018-06-09T03:50:41.123Z,20.20
2018-06-09T03:53:09.717Z,21.20
2018-06-09T03:55:38.291Z,15.80
2018-06-09T03:58:06.950Z,11.87
2018-06-09T04:00:35.614Z,13.70
2018-06-09T04:03:04.211Z,12.60
2018-06-09T04:05:32.843Z,13.43
2018-06-09T04:08:01.395Z,13.93
2018-06-09T04:10:29.987Z,13.97
2018-06-09T04:12:58.574Z,12.63
2018-06-09T04:15:27.159Z,12.27
2018-06-09T04:17:55.715Z,12.60
2018-06-09T04:20:24.343Z,13.47
2018-06-09T04:22:52.914Z,11.57
2018-06-09T04:25:21.503Z,12.00
2018-06-09T04:27:50.086Z,11.10
2018-06-09T04:30:18.649Z,13.87
2018-06-09T04:32:47.271Z,14.50
2018-06-09T04:35:15.828Z,12.03
2018-06-09T04:37:44.419Z,13.33
2018-06-09T04:40:12.970Z,11.63
2018-06-09T04:42:41.545Z,12.00
2018-06-09T04:45:10.101Z,10.20
2018-06-09T04:47:38.719Z,11.03
2018-06-09T04:50:07.308Z,12.13
2018-06-09T04:52:35.898Z,11.60
2018-06-09T04:55:04.481Z,12.83
2018-06-09T04:57:33.194Z,11.50
2018-06-09T05:00:01.763Z,12.93
2018-06-09T05:02:30.362Z,12.17
2018-06-09T05:04:58.909Z,11.60
2018-06-09T05:07:27.498Z,11.13
2018-06-09T05:09:56.067Z,11.00
2018-06-09T05:12:24.704Z,11.77
2018-06-09T05:14:53.262Z,11.90
2018-06-09T05:17:21.858Z,10.80
2018-06-09T05:19:50.429Z,10.90
2018-06-09T05:22:19.042Z,11.90
2018-06-09T05:24:47.596Z,11.57
2018-06-09T05:27:15.850Z,11.97
2018-06-09T05:29:44.407Z,10.10
2018-06-09T05:32:12.982Z,11.67
2018-06-09T05:34:41.547Z,11.10
2018-06-09T05:37:10.163Z,10.30
2018-06-09T05:39:38.721Z,9.73
2018-06-09T05:42:07.336Z,9.80
2018-06-09T05:44:35.900Z,10.60
2018-06-09T05:47:04.611Z,9.80
2018-06-09T05:49:33.205Z,10.90
2018-06-09T05:52:01.434Z,11.97
2018-06-09T05:54:30.024Z,10.47
2018-06-09T05:56:58.602Z,9.80
2018-06-09T05:59:27.223Z,8.90
2018-06-09T06:01:55.810Z,10.33
2018-06-09T06:04:24.419Z,8.90
2018-06-09T06:06:52.987Z,9.73
2018-06-09T06:09:21.575Z,9.27
2018-06-09T06:11:49.793Z,8.23
2018-06-09T06:14:18.386Z,7.30
2018-06-09T06:16:46.983Z,7.10
2018-06-09T06:19:15.550Z,6.93
2018-06-09T06:21:44.213Z,6.90
2018-06-09T06:24:12.781Z,6.87
2018-06-09T06:26:41.358Z,6.37
2018-06-09T06:29:09.937Z,6.63
2018-06-09T06:31:38.516Z,6.70
2018-06-09T06:34:07.090Z,6.10
2018-06-09T06:36:35.654Z,6.60
2018-06-09T06:39:06.569Z,5.90
2018-06-09T06:41:35.114Z,7.53
2018-06-09T06:44:03.715Z,6.30
2018-06-09T06:46:32.271Z,6.47
2018-06-09T06:49:00.934Z,5.70
2018-06-09T06:51:29.502Z,5.13
2018-06-09T06:53:58.103Z,6.00
2018-06-09T06:56:26.658Z,6.43
2018-06-09T06:58:55.271Z,5.77
2018-06-09T07:01:23.486Z,5.13
2018-06-09T07:03:52.075Z,5.57
2018-06-09T07:06:20.729Z,6.00
2018-06-09T07:08:49.277Z,5.33
2018-06-09T07:11:17.851Z,5.70
2018-06-09T07:13:46.430Z,5.77
2018-06-09T07:16:15.012Z,5.63
2018-06-09T07:18:43.587Z,6.30
2018-06-09T07:21:12.197Z,5.10
2018-06-09T07:23:40.763Z,5.00
2018-06-09T07:26:09.389Z,6.00
2018-06-09T07:28:37.931Z,5.67
2018-06-09T07:31:06.514Z,6.17
2018-06-09T07:33:35.094Z,5.73
2018-06-09T07:36:03.798Z,5.63
2018-06-09T07:38:32.346Z,5.80
2018-06-09T07:41:00.942Z,6.87
2018-06-09T07:43:29.559Z,5.97
2018-06-09T07:45:58.140Z,5.47
2018-06-09T07:48:26.771Z,5.90
2018-06-09T07:50:55.376Z,5.50
2018-06-09T07:53:24.132Z,6.10
2018-06-09T07:55:52.729Z,5.30
2018-06-09T07:58:21.309Z,5.30
2018-06-09T08:00:49.908Z,6.10
2018-06-09T08:03:18.498Z,5.40
2018-06-09T08:05:47.098Z,5.60
2018-06-09T08:08:15.717Z,5.63
2018-06-09T08:10:44.338Z,5.10
2018-06-09T08:13:12.919Z,5.23
2018-06-09T08:15:41.507Z,4.67
2018-06-09T08:18:09.760Z,5.10
2018-06-09T08:20:38.346Z,4.60
2018-06-09T08:23:06.928Z,4.10
2018-06-09T08:25:35.542Z,5.20
2018-06-09T08:28:04.143Z,4.93
2018-06-09T08:30:32.394Z,5.20
2018-06-09T08:33:00.974Z,4.50
2018-06-09T08:35:29.547Z,4.40
2018-06-09T08:37:58.182Z,4.33
2018-06-09T08:40:26.742Z,4.73
2018-06-09T08:42:55.338Z,5.13
2018-06-09T08:45:23.579Z,5.67
2018-06-09T08:47:52.193Z,4.77
2018-06-09T08:50:20.745Z,5.43
2018-06-09T08:52:49.346Z,5.30
2018-06-09T08:55:17.973Z,5.77
2018-06-09T08:57:46.570Z,5.13
2018-06-09T09:00:15.130Z,5.60
2018-06-09T09:02:43.783Z,4.50
2018-06-09T09:05:12.375Z,5.60
2018-06-09T09:07:40.983Z,5.87
2018-06-09T09:10:09.547Z,5.60
2018-06-09T09:12:38.189Z,5.50
2018-06-09T09:15:06.794Z,5.30
2018-06-09T09:17:35.437Z,6.00
2018-06-09T09:20:04.094Z,5.80
2018-06-09T09:22:32.674Z,5.87
2018-06-09T09:25:01.229Z,5.20
2018-06-09T09:27:29.814Z,5.40
2018-06-09T09:29:58.379Z,5.20
2018-06-09T09:32:26.955Z,6.30
2018-06-09T09:34:55.549Z,5.40
2018-06-09T09:37:24.140Z,6.50
2018-06-09T09:39:52.731Z,6.43
2018-06-09T09:42:21.287Z,6.10
2018-06-09T09:44:50.478Z,6.80
2018-06-09T09:47:19.053Z,6.93
2018-06-09T09:49:48.179Z,7.10
2018-06-09T09:52:16.774Z,6.90
2018-06-09T09:54:45.422Z,7.30
2018-06-09T09:57:14.004Z,7.57
2018-06-09T09:59:42.654Z,7.47
2018-06-09T10:02:11.223Z,9.20
2018-06-09T10:04:39.850Z,7.43
2018-06-09T10:07:08.436Z,8.23
2018-06-09T10:09:37.034Z,6.83
2018-06-09T10:12:06.532Z,7.07
2018-06-09T10:14:35.238Z,6.90
2018-06-09T10:17:04.195Z,7.60
2018-06-09T10:19:32.799Z,6.40
2018-06-09T10:22:01.395Z,6.93
2018-06-09T10:24:29.966Z,6.97
2018-06-09T10:26:58.561Z,8.10
2018-06-09T10:29:27.153Z,6.83
2018-06-09T10:31:55.705Z,7.80
2018-06-09T10:34:24.287Z,7.47
2018-06-09T10:36:52.852Z,7.43
2018-06-09T10:39:21.444Z,7.87
2018-06-09T10:41:50.023Z,7.67
2018-06-09T10:44:18.599Z,7.20
2018-06-09T10:46:47.269Z,8.77
2018-06-09T10:49:15.850Z,8.30
2018-06-09T10:51:44.432Z,6.67
2018-06-09T10:54:13.016Z,8.27
2018-06-09T10:56:41.601Z,8.20
2018-06-09T10:59:10.215Z,6.33
2018-06-09T11:01:38.762Z,7.37
2018-06-09T11:04:07.437Z,7.03
2018-06-09T11:06:36.487Z,7.47
2018-06-09T11:09:07.120Z,7.33
2018-06-09T11:11:35.750Z,7.27
2018-06-09T11:14:04.358Z,7.50
2018-06-09T11:16:32.967Z,7.20
2018-06-09T11:19:01.555Z,6.80
2018-06-09T11:21:30.165Z,7.23
2018-06-09T11:23:58.753Z,7.57
2018-06-09T11:26:27.377Z,8.20
2018-06-09T11:28:55.963Z,7.30
2018-06-09T11:31:25.368Z,7.87
2018-06-09T11:33:53.947Z,7.17
2018-06-09T11:36:22.575Z,8.20
2018-06-09T11:38:51.146Z,7.40
2018-06-09T11:41:19.742Z,7.30
2018-06-09T11:43:48.298Z,7.63
2018-06-09T11:46:16.947Z,7.63
2018-06-09T11:48:47.300Z,8.27
2018-06-09T11:51:15.906Z,9.10
2018-06-09T11:53:44.494Z,8.63
2018-06-09T11:56:13.110Z,9.07
2018-06-09T11:58:41.409Z,8.57
2018-06-09T12:01:10.815Z,8.83
2018-06-09T12:03:39.401Z,8.37
2018-06-09T12:06:08.001Z,9.50
2018-06-09T12:08:36.743Z,9.50
2018-06-09T12:11:05.428Z,9.80
2018-06-09T12:13:34.031Z,9.13
2018-06-09T12:16:02.643Z,8.67
2018-06-09T12:18:31.222Z,9.57
2018-06-09T12:20:59.844Z,10.07
2018-06-09T12:23:28.398Z,9.33
2018-06-09T12:25:56.984Z,9.77
2018-06-09T12:28:25.547Z,8.80
2018-06-09T12:30:54.154Z,9.30
2018-06-09T12:33:22.739Z,9.80
2018-06-09T12:35:51.338Z,10.07
2018-06-09T12:38:19.954Z,8.20
2018-06-09T12:40:48.547Z,9.13
2018-06-09T12:43:17.236Z,11.03
2018-06-09T12:45:45.873Z,9.27
2018-06-09T12:48:14.474Z,9.00
2018-06-09T12:50:43.059Z,8.83
2018-06-09T12:53:11.688Z,10.23
2018-06-09T12:55:40.267Z,9.20
2018-06-09T12:58:08.871Z,10.93
2018-06-09T13:00:37.501Z,9.50
2018-06-09T13:03:06.146Z,9.40
2018-06-09T13:05:34.798Z,9.73
2018-06-09T13:08:03.495Z,10.63
2018-06-09T13:10:32.092Z,9.73
2018-06-09T13:13:00.743Z,8.97
2018-06-09T13:15:29.339Z,9.97
2018-06-09T13:17:57.966Z,10.50
2018-06-09T13:20:26.226Z,10.87
2018-06-09T13:22:54.824Z,10.17
2018-06-09T13:25:23.542Z,10.50
2018-06-09T13:27:52.143Z,10.13
2018-06-09T13:30:20.810Z,8.80
2018-06-09T13:32:49.395Z,9.83
2018-06-09T13:35:18.047Z,9.80
2018-06-09T13:37:46.696Z,9.70
2018-06-09T13:40:15.271Z,10.10
2018-06-09T13:42:43.888Z,9.87
2018-06-09T13:45:12.532Z,10.83
2018-06-09T13:47:41.135Z,10.07
2018-06-09T13:50:09.711Z,9.67
2018-06-09T13:52:38.292Z,9.80
2018-06-09T13:55:06.882Z,13.00
2018-06-09T13:57:35.474Z,29.80
2018-06-09T14:00:04.186Z,13.40
2018-06-09T14:02:32.797Z,18.40
2018-06-09T14:05:01.362Z,11.00
2018-06-09T14:07:29.994Z,13.20
2018-06-09T14:09:58.586Z,12.77
2018-06-09T14:12:27.242Z,11.70
2018-06-09T14:14:55.971Z,11.37
2018-06-09T14:17:25.026Z,10.17
2018-06-09T14:19:54.158Z,11.20
2018-06-09T14:22:23.149Z,14.50
2018-06-09T14:24:51.804Z,12.03
2018-06-09T14:27:20.379Z,10.07
2018-06-09T14:29:48.985Z,9.87
2018-06-09T14:32:17.539Z,10.63
2018-06-09T14:34:46.241Z,9.30
2018-06-09T14:37:14.818Z,9.63
2018-06-09T14:39:43.423Z,11.30
2018-06-09T14:42:12.011Z,12.30
2018-06-09T14:44:40.618Z,10.90
2018-06-09T14:47:09.169Z,10.13
2018-06-09T14:49:37.750Z,10.10
2018-06-09T14:52:06.423Z,12.10
2018-06-09T14:54:35.019Z,10.90
2018-06-09T14:57:03.610Z,11.70
2018-06-09T14:59:32.574Z,12.70
2018-06-09T15:02:01.564Z,11.30
2018-06-09T15:04:30.147Z,11.30
2018-06-09T15:06:59.175Z,11.10
2018-06-09T15:09:27.840Z,11.23
2018-06-09T15:11:56.408Z,11.60
2018-06-09T15:14:25.092Z,12.30
2018-06-09T15:16:53.879Z,16.40
2018-06-09T15:19:22.495Z,11.83
2018-06-09T15:21:51.386Z,9.50
2018-06-09T15:24:20.022Z,10.03
2018-06-09T15:26:48.587Z,10.50
2018-06-09T15:29:16.858Z,11.50
2018-06-09T15:31:45.410Z,11.50
2018-06-09T15:34:13.998Z,9.23
2018-06-09T15:36:42.557Z,9.47
2018-06-09T15:39:11.175Z,9.50
2018-06-09T15:41:39.816Z,7.97
2018-06-09T15:44:08.400Z,8.73
2018-06-09T15:46:37.008Z,6.23
2018-06-09T15:49:05.586Z,7.00
2018-06-09T15:51:34.240Z,5.97
2018-06-09T15:54:02.976Z,8.17
2018-06-09T15:56:31.557Z,4.60
2018-06-09T15:59:00.231Z,4.93
2018-06-09T16:01:28.852Z,5.93
2018-06-09T16:03:57.415Z,5.70
2018-06-09T16:06:25.993Z,7.07
2018-06-09T16:08:54.601Z,8.00
2018-06-09T16:11:23.185Z,10.00
2018-06-09T16:13:51.461Z,8.57
2018-06-09T16:16:20.062Z,8.30
2018-06-09T16:18:48.623Z,6.47
2018-06-09T16:21:17.256Z,7.43
2018-06-09T16:23:45.879Z,8.00
2018-06-09T16:26:14.479Z,6.30
2018-06-09T16:28:43.067Z,7.03
2018-06-09T16:31:11.674Z,6.40
2018-06-09T16:33:40.262Z,7.70
2018-06-09T16:36:08.855Z,6.63
2018-06-09T16:38:37.439Z,6.63
2018-06-09T16:41:06.167Z,6.83
2018-06-09T16:43:34.744Z,6.83
2018-06-09T16:46:03.380Z,11.53
2018-06-09T16:48:31.956Z,7.00
2018-06-09T16:51:00.566Z,7.40
2018-06-09T16:53:29.518Z,10.50
2018-06-09T16:55:58.152Z,8.77
2018-06-09T16:58:26.818Z,6.23
2018-06-09T17:00:55.481Z,8.80
2018-06-09T17:03:24.087Z,6.33
2018-06-09T17:05:52.759Z,10.93
2018-06-09T17:08:21.491Z,8.00
2018-06-09T17:10:50.131Z,8.13
2018-06-09T17:13:18.774Z,7.20
2018-06-09T17:15:47.410Z,9.13
2018-06-09T17:18:16.037Z,8.67
2018-06-09T17:20:44.631Z,8.33
2018-06-09T17:23:13.236Z,6.07
2018-06-09T17:25:41.789Z,6.10
2018-06-09T17:28:10.371Z,9.03
2018-06-09T17:30:38.946Z,9.43
2018-06-09T17:33:07.538Z,8.93
2018-06-09T17:35:35.814Z,8.20
2018-06-09T17:38:04.432Z,10.17
2018-06-09T17:40:33.038Z,8.07
2018-06-09T17:43:01.677Z,8.20
2018-06-09T17:45:30.287Z,8.23
2018-06-09T17:47:58.922Z,11.80
2018-06-09T17:50:27.826Z,10.37
2018-06-09T17:52:56.445Z,6.73
2018-06-09T17:55:25.033Z,8.47
2018-06-09T17:57:53.646Z,7.00
2018-06-09T18:00:22.215Z,13.67
2018-06-09T18:02:50.850Z,10.43
2018-06-09T18:05:19.443Z,16.03
2018-06-09T18:07:48.073Z,16.77
2018-06-09T18:10:16.639Z,11.10
2018-06-09T18:12:45.367Z,9.23
2018-06-09T18:15:13.958Z,9.73
2018-06-09T18:17:42.603Z,8.40
2018-06-09T18:20:11.205Z,10.50
2018-06-09T18:22:39.818Z,8.90
2018-06-09T18:25:09.310Z,10.20
2018-06-09T18:27:37.579Z,12.17
2018-06-09T18:30:06.348Z,14.27
2018-06-09T18:32:34.955Z,13.50
2018-06-09T18:35:03.614Z,12.10
2018-06-09T18:37:32.231Z,10.97
2018-06-09T18:40:00.794Z,9.60
2018-06-09T18:42:29.372Z,10.77
2018-06-09T18:44:57.984Z,12.30
2018-06-09T18:47:26.233Z,11.40
2018-06-09T18:49:54.974Z,13.27
2018-06-09T18:52:23.589Z,15.97
2018-06-09T18:54:52.179Z,15.47
2018-06-09T18:57:20.778Z,13.70
2018-06-09T18:59:49.418Z,13.60
2018-06-09T19:02:18.024Z,16.70
2018-06-09T19:04:46.691Z,14.63
2018-06-09T19:07:15.307Z,17.30
2018-06-09T19:09:43.911Z,20.30
2018-06-09T19:12:12.783Z,30.70
2018-06-09T19:14:41.441Z,18.93
2018-06-09T19:17:10.464Z,18.40
2018-06-09T19:19:39.113Z,17.10
2018-06-09T19:22:07.709Z,19.97
2018-06-09T19:24:36.327Z,23.73
2018-06-09T19:27:05.011Z,19.63
2018-06-09T19:29:33.611Z,19.40
2018-06-09T19:32:02.204Z,20.53
2018-06-09T19:34:30.819Z,21.20
2018-06-09T19:36:59.431Z,20.30
2018-06-09T19:39:28.206Z,17.13
2018-06-09T19:41:56.856Z,18.03
2018-06-09T19:44:26.550Z,31.50
2018-06-09T19:46:55.149Z,29.03
2018-06-09T19:49:24.694Z,20.40
2018-06-09T19:51:53.298Z,20.47
2018-06-09T19:54:21.562Z,22.40
2018-06-09T19:56:50.130Z,24.53
2018-06-09T19:59:18.760Z,19.37
2018-06-09T20:01:47.316Z,19.40
2018-06-09T20:04:15.960Z,25.10
2018-06-09T20:06:44.543Z,21.80
2018-06-09T20:09:13.226Z,27.27
2018-06-09T20:11:41.869Z,27.53
2018-06-09T20:14:11.033Z,26.87
2018-06-09T20:16:39.658Z,32.90
2018-06-09T20:19:08.247Z,20.67
2018-06-09T20:21:36.858Z,27.73
2018-06-09T20:24:05.473Z,21.63
2018-06-09T20:26:34.109Z,21.40
2018-06-09T20:29:02.782Z,25.03
2018-06-09T20:31:31.527Z,20.90
2018-06-09T20:34:00.107Z,19.67
2018-06-09T20:36:28.738Z,21.20
2018-06-09T20:38:57.429Z,22.23
2018-06-09T20:41:26.115Z,25.10
2018-06-09T20:43:54.739Z,19.47
2018-06-09T20:46:23.409Z,21.30
2018-06-09T20:48:52.177Z,25.60
2018-06-09T20:51:20.871Z,23.30
2018-06-09T20:53:49.522Z,26.80
2018-06-09T20:56:18.128Z,22.73
2018-06-09T20:58:46.740Z,21.47
2018-06-09T21:01:15.371Z,22.43
2018-06-09T21:03:43.963Z,22.67
2018-06-09T21:06:12.611Z,19.80
2018-06-09T21:08:41.190Z,22.40
2018-06-09T21:11:09.834Z,22.37
2018-06-09T21:13:38.421Z,26.60
2018-06-09T21:16:07.087Z,27.60
2018-06-09T21:18:35.694Z,21.37
2018-06-09T21:21:04.312Z,22.23
2018-06-09T21:23:32.994Z,23.80
2018-06-09T21:26:01.691Z,21.40
2018-06-09T21:28:34.453Z,24.93
2018-06-09T21:31:08.281Z,22.27
2018-06-09T21:33:53.248Z,23.33
2018-06-09T21:36:27.877Z,23.00
2018-06-09T21:39:04.743Z,22.63
2018-06-09T21:41:38.562Z,24.27
2018-06-09T21:44:12.532Z,19.63
2018-06-09T21:46:47.520Z,23.17
2018-06-09T21:49:17.252Z,22.13
2018-06-09T21:51:45.873Z,22.40
2018-06-09T21:54:14.486Z,24.47
2018-06-09T21:56:43.085Z,22.97
2018-06-09T21:59:11.667Z,24.40
2018-06-09T22:01:40.248Z,21.50
2018-06-09T22:04:08.843Z,21.50
2018-06-09T22:06:37.477Z,20.07
2018-06-09T22:09:06.411Z,20.57
2018-06-09T22:11:34.993Z,19.60
2018-06-09T22:14:03.652Z,22.87
2018-06-09T22:16:32.211Z,23.27
2018-06-09T22:19:00.822Z,22.53
2018-06-09T22:21:29.422Z,18.07
2018-06-09T22:23:57.997Z,19.33
2018-06-09T22:26:26.611Z,21.10
2018-06-09T22:28:55.240Z,19.27
2018-06-09T22:31:23.829Z,19.57
2018-06-09T22:33:52.098Z,19.97
2018-06-09T22:36:20.695Z,19.23
2018-06-09T22:38:49.360Z,21.73
2018-06-09T22:41:17.937Z,19.57
2018-06-09T22:43:46.566Z,22.07
2018-06-09T22:46:15.176Z,24.00
2018-06-09T22:48:43.779Z,21.60
2018-06-09T22:51:12.393Z,19.00
2018-06-09T22:53:41.025Z,19.20
2018-06-09T22:56:09.610Z,19.60
2018-06-09T22:58:38.214Z,20.60
2018-06-09T23:01:06.863Z,21.27
2018-06-09T23:03:35.476Z,19.93
2018-06-09T23:06:04.104Z,20.67
2018-06-09T23:08:35.408Z,20.67
2018-06-09T23:11:04.003Z,19.23
2018-06-09T23:13:32.634Z,19.07
2018-06-09T23:16:01.235Z,19.77
2018-06-09T23:18:29.816Z,18.90
2018-06-09T23:20:58.398Z,20.27
2018-06-09T23:23:26.980Z,22.60
2018-06-09T23:25:55.562Z,20.03
2018-06-09T23:28:24.126Z,20.27
2018-06-09T23:30:52.756Z,20.47
2018-06-09T23:33:21.319Z,18.80
2018-06-09T23:35:49.942Z,18.50
2018-06-09T23:38:18.507Z,17.10
2018-06-09T23:40:47.116Z,21.10
2018-06-09T23:43:15.748Z,20.30
2018-06-09T23:45:44.338Z,16.90
2018-06-09T23:48:12.899Z,19.10
2018-06-09T23:50:41.502Z,22.10
2018-06-09T23:53:10.072Z,18.67
2018-06-09T23:55:38.682Z,17.53
2018-06-09T23:58:07.267Z,17.87
